sensor_id;sensor_type;location;lat;lon;timestamp;P1;durP1;ratioP1;P2;durP2;ratioP2
74328;SDS011;62745;51.060;13.786;2024-03-23T00:53:47;13.70;;;6.20;;
74328;SDS011;62745;51.060;13.786;2024-03-23T00:56:12;9.45;;;5.40;;
74328;SDS011;62745;51.060;13.786;2024-03-23T00:58:38;11.38;;;6.10;;
74328;SDS011;62745;51.060;13.786;2024-03-23T01:01:03;14.32;;;6.40;;
74328;SDS011;62745;51.060;13.786;2024-03-23T01:03:29;15.38;;;6.80;;
74328;SDS011;62745;51.060;13.786;2024-03-23T01:05:58;14.27;;;6.32;;
74328;SDS011;62745;51.060;13.786;2024-03-23T01:08:27;10.95;;;5.53;;
74328;SDS011;62745;51.060;13.786;2024-03-23T01:10:59;11.38;;;6.32;;
74328;SDS011;62745;51.060;13.786;2024-03-23T01:13:26;12.82;;;6.55;;
74328;SDS011;62745;51.060;13.786;2024-03-23T01:15:53;14.45;;;6.88;;
74328;SDS011;62745;51.060;13.786;2024-03-23T01:18:19;13.38;;;6.88;;
74328;SDS011;62745;51.060;13.786;2024-03-23T01:20:46;13.88;;;7.03;;
74328;SDS011;62745;51.060;13.786;2024-03-23T01:23:11;14.88;;;8.43;;
74328;SDS011;62745;51.060;13.786;2024-03-23T01:25:37;13.93;;;6.75;;
74328;SDS011;62745;51.060;13.786;2024-03-23T01:28:03;13.05;;;6.53;;
74328;SDS011;62745;51.060;13.786;2024-03-23T01:30:29;16.95;;;6.30;;
74328;SDS011;62745;51.060;13.786;2024-03-23T01:32:55;11.05;;;6.05;;
74328;SDS011;62745;51.060;13.786;2024-03-23T01:35:21;9.95;;;5.38;;
74328;SDS011;62745;51.060;13.786;2024-03-23T01:37:46;10.45;;;5.93;;
74328;SDS011;62745;51.060;13.786;2024-03-23T01:40:12;11.55;;;5.72;;
74328;SDS011;62745;51.060;13.786;2024-03-23T01:42:40;16.15;;;6.63;;
74328;SDS011;62745;51.060;13.786;2024-03-23T01:45:07;15.93;;;7.20;;
74328;SDS011;62745;51.060;13.786;2024-03-23T01:47:33;15.15;;;7.60;;
74328;SDS011;62745;51.060;13.786;2024-03-23T01:49:59;12.70;;;6.88;;
74328;SDS011;62745;51.060;13.786;2024-03-23T01:52:25;14.23;;;7.32;;
74328;SDS011;62745;51.060;13.786;2024-03-23T01:54:53;13.65;;;6.60;;
74328;SDS011;62745;51.060;13.786;2024-03-23T01:57:19;12.00;;;6.53;;
74328;SDS011;62745;51.060;13.786;2024-03-23T01:59:46;11.93;;;6.18;;
74328;SDS011;62745;51.060;13.786;2024-03-23T02:02:12;12.05;;;5.93;;
74328;SDS011;62745;51.060;13.786;2024-03-23T02:04:37;11.95;;;6.53;;
74328;SDS011;62745;51.060;13.786;2024-03-23T02:07:03;13.15;;;6.75;;
74328;SDS011;62745;51.060;13.786;2024-03-23T02:09:30;10.38;;;6.00;;
74328;SDS011;62745;51.060;13.786;2024-03-23T02:11:57;12.82;;;6.65;;
74328;SDS011;62745;51.060;13.786;2024-03-23T02:14:22;12.73;;;6.53;;
74328;SDS011;62745;51.060;13.786;2024-03-23T02:16:48;13.32;;;5.95;;
74328;SDS011;62745;51.060;13.786;2024-03-23T02:19:13;11.52;;;4.93;;
74328;SDS011;62745;51.060;13.786;2024-03-23T02:21:38;12.65;;;5.25;;
74328;SDS011;62745;51.060;13.786;2024-03-23T02:24:04;9.20;;;4.88;;
74328;SDS011;62745;51.060;13.786;2024-03-23T02:26:30;8.45;;;4.53;;
74328;SDS011;62745;51.060;13.786;2024-03-23T02:28:55;10.27;;;5.18;;
74328;SDS011;62745;51.060;13.786;2024-03-23T02:31:21;11.50;;;5.47;;
74328;SDS011;62745;51.060;13.786;2024-03-23T02:33:46;13.68;;;5.65;;
74328;SDS011;62745;51.060;13.786;2024-03-23T02:36:12;13.82;;;6.13;;
74328;SDS011;62745;51.060;13.786;2024-03-23T02:38:37;15.07;;;6.70;;
74328;SDS011;62745;51.060;13.786;2024-03-23T02:41:03;13.02;;;6.00;;
74328;SDS011;62745;51.060;13.786;2024-03-23T02:43:29;14.98;;;6.55;;
74328;SDS011;62745;51.060;13.786;2024-03-23T02:45:54;13.00;;;7.13;;
74328;SDS011;62745;51.060;13.786;2024-03-23T02:48:20;13.82;;;7.28;;
74328;SDS011;62745;51.060;13.786;2024-03-23T02:50:45;14.40;;;7.60;;
74328;SDS011;62745;51.060;13.786;2024-03-23T02:53:11;14.18;;;6.97;;
74328;SDS011;62745;51.060;13.786;2024-03-23T02:55:36;15.70;;;7.45;;
74328;SDS011;62745;51.060;13.786;2024-03-23T02:58:02;14.35;;;6.95;;
74328;SDS011;62745;51.060;13.786;2024-03-23T03:00:28;17.00;;;7.65;;
74328;SDS011;62745;51.060;13.786;2024-03-23T03:02:54;14.20;;;7.18;;
74328;SDS011;62745;51.060;13.786;2024-03-23T03:05:19;17.52;;;9.15;;
74328;SDS011;62745;51.060;13.786;2024-03-23T03:07:45;15.73;;;7.90;;
74328;SDS011;62745;51.060;13.786;2024-03-23T03:10:10;17.15;;;8.05;;
74328;SDS011;62745;51.060;13.786;2024-03-23T03:12:36;16.25;;;8.30;;
74328;SDS011;62745;51.060;13.786;2024-03-23T03:15:03;16.70;;;7.78;;
74328;SDS011;62745;51.060;13.786;2024-03-23T03:17:30;13.43;;;7.60;;
74328;SDS011;62745;51.060;13.786;2024-03-23T03:19:56;14.35;;;7.45;;
74328;SDS011;62745;51.060;13.786;2024-03-23T03:22:24;16.65;;;7.97;;
74328;SDS011;62745;51.060;13.786;2024-03-23T03:24:50;17.20;;;7.68;;
74328;SDS011;62745;51.060;13.786;2024-03-23T03:27:16;17.42;;;8.40;;
74328;SDS011;62745;51.060;13.786;2024-03-23T03:29:42;14.98;;;8.18;;
74328;SDS011;62745;51.060;13.786;2024-03-23T03:32:07;20.58;;;8.55;;
74328;SDS011;62745;51.060;13.786;2024-03-23T03:34:33;17.70;;;9.90;;
74328;SDS011;62745;51.060;13.786;2024-03-23T03:36:59;15.45;;;8.38;;
74328;SDS011;62745;51.060;13.786;2024-03-23T03:39:25;18.70;;;8.93;;
74328;SDS011;62745;51.060;13.786;2024-03-23T03:41:51;17.17;;;8.15;;
74328;SDS011;62745;51.060;13.786;2024-03-23T03:44:17;16.45;;;8.18;;
74328;SDS011;62745;51.060;13.786;2024-03-23T03:46:42;18.08;;;8.60;;
74328;SDS011;62745;51.060;13.786;2024-03-23T03:49:08;16.17;;;7.78;;
74328;SDS011;62745;51.060;13.786;2024-03-23T03:57:41;16.80;;;8.07;;
74328;SDS011;62745;51.060;13.786;2024-03-23T04:00:07;17.02;;;8.95;;
74328;SDS011;62745;51.060;13.786;2024-03-23T04:02:39;21.00;;;9.43;;
74328;SDS011;62745;51.060;13.786;2024-03-23T04:05:05;20.02;;;9.98;;
74328;SDS011;62745;51.060;13.786;2024-03-23T04:07:31;19.15;;;8.75;;
74328;SDS011;62745;51.060;13.786;2024-03-23T04:09:56;17.83;;;9.32;;
74328;SDS011;62745;51.060;13.786;2024-03-23T04:12:23;18.33;;;8.07;;
74328;SDS011;62745;51.060;13.786;2024-03-23T04:14:48;15.00;;;8.63;;
74328;SDS011;62745;51.060;13.786;2024-03-23T04:17:14;20.83;;;9.57;;
74328;SDS011;62745;51.060;13.786;2024-03-23T04:19:39;18.13;;;9.40;;
74328;SDS011;62745;51.060;13.786;2024-03-23T04:22:05;19.20;;;9.95;;
74328;SDS011;62745;51.060;13.786;2024-03-23T04:24:30;18.08;;;9.02;;
74328;SDS011;62745;51.060;13.786;2024-03-23T04:26:56;20.60;;;8.68;;
74328;SDS011;62745;51.060;13.786;2024-03-23T04:29:21;21.08;;;10.63;;
74328;SDS011;62745;51.060;13.786;2024-03-23T04:31:47;20.88;;;9.88;;
74328;SDS011;62745;51.060;13.786;2024-03-23T04:34:13;19.33;;;9.25;;
74328;SDS011;62745;51.060;13.786;2024-03-23T04:36:38;22.33;;;9.43;;
74328;SDS011;62745;51.060;13.786;2024-03-23T04:39:05;24.00;;;9.95;;
74328;SDS011;62745;51.060;13.786;2024-03-23T04:41:34;22.30;;;11.15;;
74328;SDS011;62745;51.060;13.786;2024-03-23T04:44:00;24.20;;;11.40;;
74328;SDS011;62745;51.060;13.786;2024-03-23T04:46:25;29.13;;;12.20;;
74328;SDS011;62745;51.060;13.786;2024-03-23T04:48:51;26.58;;;12.93;;
74328;SDS011;62745;51.060;13.786;2024-03-23T04:51:20;24.73;;;11.40;;
74328;SDS011;62745;51.060;13.786;2024-03-23T04:53:47;27.30;;;11.65;;
74328;SDS011;62745;51.060;13.786;2024-03-23T04:56:13;24.77;;;10.95;;
74328;SDS011;62745;51.060;13.786;2024-03-23T04:58:39;27.08;;;11.27;;
74328;SDS011;62745;51.060;13.786;2024-03-23T05:01:05;22.00;;;11.10;;
74328;SDS011;62745;51.060;13.786;2024-03-23T05:03:31;25.55;;;10.93;;
74328;SDS011;62745;51.060;13.786;2024-03-23T05:05:56;25.95;;;11.85;;
74328;SDS011;62745;51.060;13.786;2024-03-23T05:08:22;28.90;;;12.07;;
74328;SDS011;62745;51.060;13.786;2024-03-23T05:10:47;25.67;;;11.23;;
74328;SDS011;62745;51.060;13.786;2024-03-23T05:13:13;25.95;;;12.27;;
74328;SDS011;62745;51.060;13.786;2024-03-23T05:15:39;28.55;;;13.20;;
74328;SDS011;62745;51.060;13.786;2024-03-23T05:18:04;29.73;;;12.73;;
74328;SDS011;62745;51.060;13.786;2024-03-23T05:20:31;28.67;;;12.90;;
74328;SDS011;62745;51.060;13.786;2024-03-23T05:22:56;31.02;;;13.95;;
74328;SDS011;62745;51.060;13.786;2024-03-23T05:25:22;28.83;;;12.93;;
74328;SDS011;62745;51.060;13.786;2024-03-23T05:27:48;29.42;;;12.90;;
74328;SDS011;62745;51.060;13.786;2024-03-23T05:30:13;29.13;;;12.80;;
74328;SDS011;62745;51.060;13.786;2024-03-23T05:32:39;25.10;;;11.98;;
74328;SDS011;62745;51.060;13.786;2024-03-23T05:35:08;25.35;;;11.43;;
74328;SDS011;62745;51.060;13.786;2024-03-23T05:37:34;26.35;;;11.65;;
74328;SDS011;62745;51.060;13.786;2024-03-23T05:40:00;27.77;;;13.43;;
74328;SDS011;62745;51.060;13.786;2024-03-23T05:42:26;28.15;;;13.40;;
74328;SDS011;62745;51.060;13.786;2024-03-23T05:44:52;27.88;;;12.73;;
74328;SDS011;62745;51.060;13.786;2024-03-23T05:50:39;24.30;;;11.68;;
74328;SDS011;62745;51.060;13.786;2024-03-23T05:53:05;26.15;;;10.65;;
74328;SDS011;62745;51.060;13.786;2024-03-23T05:55:30;27.25;;;12.85;;
74328;SDS011;62745;51.060;13.786;2024-03-23T05:57:57;27.05;;;12.82;;
74328;SDS011;62745;51.060;13.786;2024-03-23T06:04:12;21.95;;;11.30;;
74328;SDS011;62745;51.060;13.786;2024-03-23T06:11:57;23.27;;;10.93;;
74328;SDS011;62745;51.060;13.786;2024-03-23T06:14:24;23.90;;;11.07;;
74328;SDS011;62745;51.060;13.786;2024-03-23T06:16:50;26.13;;;12.48;;
74328;SDS011;62745;51.060;13.786;2024-03-23T06:19:15;25.23;;;12.10;;
74328;SDS011;62745;51.060;13.786;2024-03-23T06:21:44;28.58;;;12.82;;
74328;SDS011;62745;51.060;13.786;2024-03-23T06:24:10;23.85;;;12.23;;
74328;SDS011;62745;51.060;13.786;2024-03-23T06:26:37;25.67;;;12.27;;
74328;SDS011;62745;51.060;13.786;2024-03-23T06:29:02;26.10;;;13.15;;
74328;SDS011;62745;51.060;13.786;2024-03-23T06:31:28;25.50;;;13.07;;
74328;SDS011;62745;51.060;13.786;2024-03-23T06:33:55;26.83;;;13.65;;
74328;SDS011;62745;51.060;13.786;2024-03-23T06:36:20;28.15;;;13.77;;
74328;SDS011;62745;51.060;13.786;2024-03-23T06:38:46;28.65;;;12.70;;
74328;SDS011;62745;51.060;13.786;2024-03-23T06:41:11;25.55;;;12.32;;
74328;SDS011;62745;51.060;13.786;2024-03-23T06:43:37;30.80;;;13.73;;
74328;SDS011;62745;51.060;13.786;2024-03-23T06:46:03;27.20;;;12.90;;
74328;SDS011;62745;51.060;13.786;2024-03-23T06:48:29;29.45;;;12.75;;
74328;SDS011;62745;51.060;13.786;2024-03-23T06:50:56;27.10;;;13.15;;
74328;SDS011;62745;51.060;13.786;2024-03-23T06:53:22;32.15;;;13.27;;
74328;SDS011;62745;51.060;13.786;2024-03-23T06:55:54;27.40;;;12.68;;
74328;SDS011;62745;51.060;13.786;2024-03-23T06:58:21;24.98;;;12.25;;
74328;SDS011;62745;51.060;13.786;2024-03-23T07:00:47;26.45;;;13.52;;
74328;SDS011;62745;51.060;13.786;2024-03-23T07:03:13;30.00;;;13.27;;
74328;SDS011;62745;51.060;13.786;2024-03-23T07:05:39;29.17;;;13.77;;
74328;SDS011;62745;51.060;13.786;2024-03-23T07:08:04;27.25;;;12.45;;
74328;SDS011;62745;51.060;13.786;2024-03-23T07:10:30;28.48;;;13.35;;
74328;SDS011;62745;51.060;13.786;2024-03-23T07:12:56;29.30;;;13.90;;
74328;SDS011;62745;51.060;13.786;2024-03-23T07:15:21;32.28;;;14.57;;
74328;SDS011;62745;51.060;13.786;2024-03-23T07:17:47;27.98;;;12.63;;
74328;SDS011;62745;51.060;13.786;2024-03-23T07:20:13;29.23;;;13.60;;
74328;SDS011;62745;51.060;13.786;2024-03-23T07:22:38;31.70;;;14.32;;
74328;SDS011;62745;51.060;13.786;2024-03-23T07:25:04;34.75;;;13.57;;
74328;SDS011;62745;51.060;13.786;2024-03-23T07:27:31;27.35;;;13.00;;
74328;SDS011;62745;51.060;13.786;2024-03-23T07:29:57;27.15;;;13.15;;
74328;SDS011;62745;51.060;13.786;2024-03-23T07:32:23;31.65;;;14.90;;
74328;SDS011;62745;51.060;13.786;2024-03-23T07:38:21;31.13;;;14.60;;
74328;SDS011;62745;51.060;13.786;2024-03-23T07:40:47;31.70;;;13.10;;
74328;SDS011;62745;51.060;13.786;2024-03-23T07:43:15;30.30;;;13.13;;
74328;SDS011;62745;51.060;13.786;2024-03-23T07:45:40;26.23;;;13.43;;
74328;SDS011;62745;51.060;13.786;2024-03-23T07:48:06;29.90;;;13.80;;
74328;SDS011;62745;51.060;13.786;2024-03-23T07:50:32;27.17;;;12.95;;
74328;SDS011;62745;51.060;13.786;2024-03-23T07:52:57;24.80;;;12.48;;
74328;SDS011;62745;51.060;13.786;2024-03-23T07:55:23;24.15;;;12.45;;
74328;SDS011;62745;51.060;13.786;2024-03-23T07:57:50;30.08;;;13.43;;
74328;SDS011;62745;51.060;13.786;2024-03-23T08:00:16;26.55;;;13.10;;
74328;SDS011;62745;51.060;13.786;2024-03-23T08:02:42;25.50;;;12.90;;
74328;SDS011;62745;51.060;13.786;2024-03-23T08:05:07;26.52;;;13.02;;
74328;SDS011;62745;51.060;13.786;2024-03-23T08:07:33;25.80;;;12.38;;
74328;SDS011;62745;51.060;13.786;2024-03-23T08:09:59;28.48;;;13.65;;
74328;SDS011;62745;51.060;13.786;2024-03-23T08:12:25;27.80;;;13.20;;
74328;SDS011;62745;51.060;13.786;2024-03-23T08:14:50;28.70;;;13.20;;
74328;SDS011;62745;51.060;13.786;2024-03-23T08:17:16;24.05;;;12.35;;
74328;SDS011;62745;51.060;13.786;2024-03-23T08:19:41;22.90;;;12.80;;
74328;SDS011;62745;51.060;13.786;2024-03-23T08:22:07;21.58;;;11.15;;
74328;SDS011;62745;51.060;13.786;2024-03-23T08:24:34;25.92;;;13.15;;
74328;SDS011;62745;51.060;13.786;2024-03-23T08:26:59;27.27;;;13.38;;
74328;SDS011;62745;51.060;13.786;2024-03-23T08:29:25;22.05;;;11.18;;
74328;SDS011;62745;51.060;13.786;2024-03-23T08:31:50;22.90;;;12.35;;
74328;SDS011;62745;51.060;13.786;2024-03-23T08:34:16;24.85;;;12.15;;
74328;SDS011;62745;51.060;13.786;2024-03-23T08:36:41;24.10;;;12.45;;
74328;SDS011;62745;51.060;13.786;2024-03-23T08:39:07;23.17;;;11.40;;
74328;SDS011;62745;51.060;13.786;2024-03-23T08:41:32;25.48;;;12.73;;
74328;SDS011;62745;51.060;13.786;2024-03-23T08:43:58;23.75;;;12.20;;
74328;SDS011;62745;51.060;13.786;2024-03-23T08:46:24;26.33;;;11.95;;
74328;SDS011;62745;51.060;13.786;2024-03-23T08:48:49;27.77;;;12.20;;
74328;SDS011;62745;51.060;13.786;2024-03-23T08:51:15;24.42;;;12.75;;
74328;SDS011;62745;51.060;13.786;2024-03-23T08:53:42;26.90;;;14.07;;
74328;SDS011;62745;51.060;13.786;2024-03-23T08:56:08;23.00;;;12.15;;
74328;SDS011;62745;51.060;13.786;2024-03-23T08:58:34;25.92;;;12.88;;
74328;SDS011;62745;51.060;13.786;2024-03-23T09:01:11;25.67;;;12.82;;
74328;SDS011;62745;51.060;13.786;2024-03-23T09:03:38;22.23;;;10.02;;
74328;SDS011;62745;51.060;13.786;2024-03-23T09:06:07;20.48;;;10.38;;
74328;SDS011;62745;51.060;13.786;2024-03-23T09:08:37;20.17;;;10.57;;
74328;SDS011;62745;51.060;13.786;2024-03-23T09:11:20;20.33;;;9.98;;
74328;SDS011;62745;51.060;13.786;2024-03-23T09:13:46;18.83;;;9.85;;
74328;SDS011;62745;51.060;13.786;2024-03-23T09:16:11;21.05;;;10.02;;
74328;SDS011;62745;51.060;13.786;2024-03-23T09:18:38;19.10;;;9.50;;
74328;SDS011;62745;51.060;13.786;2024-03-23T09:21:04;19.30;;;9.68;;
74328;SDS011;62745;51.060;13.786;2024-03-23T09:23:35;21.98;;;10.98;;
74328;SDS011;62745;51.060;13.786;2024-03-23T09:26:04;22.13;;;12.32;;
74328;SDS011;62745;51.060;13.786;2024-03-23T09:28:30;24.08;;;11.75;;
74328;SDS011;62745;51.060;13.786;2024-03-23T09:31:01;20.15;;;11.32;;
74328;SDS011;62745;51.060;13.786;2024-03-23T09:33:27;20.92;;;11.45;;
74328;SDS011;62745;51.060;13.786;2024-03-23T09:35:54;19.45;;;9.65;;
74328;SDS011;62745;51.060;13.786;2024-03-23T09:42:02;13.30;;;7.20;;
74328;SDS011;62745;51.060;13.786;2024-03-23T09:44:29;11.75;;;7.35;;
74328;SDS011;62745;51.060;13.786;2024-03-23T09:46:55;16.80;;;8.30;;
74328;SDS011;62745;51.060;13.786;2024-03-23T09:49:21;12.38;;;6.85;;
74328;SDS011;62745;51.060;13.786;2024-03-23T09:51:46;13.82;;;8.00;;
74328;SDS011;62745;51.060;13.786;2024-03-23T09:54:12;16.00;;;8.30;;
74328;SDS011;62745;51.060;13.786;2024-03-23T09:56:37;18.35;;;8.30;;
74328;SDS011;62745;51.060;13.786;2024-03-23T09:59:03;19.05;;;9.40;;
74328;SDS011;62745;51.060;13.786;2024-03-23T10:01:29;14.02;;;6.03;;
74328;SDS011;62745;51.060;13.786;2024-03-23T10:03:55;11.85;;;5.20;;
74328;SDS011;62745;51.060;13.786;2024-03-23T10:06:24;9.85;;;4.00;;
74328;SDS011;62745;51.060;13.786;2024-03-23T10:08:52;8.60;;;3.13;;
74328;SDS011;62745;51.060;13.786;2024-03-23T10:11:20;7.35;;;2.10;;
74328;SDS011;62745;51.060;13.786;2024-03-23T10:13:46;8.02;;;2.10;;
74328;SDS011;62745;51.060;13.786;2024-03-23T10:16:12;3.80;;;1.50;;
74328;SDS011;62745;51.060;13.786;2024-03-23T10:18:47;5.35;;;1.67;;
74328;SDS011;62745;51.060;13.786;2024-03-23T10:21:13;2.92;;;1.00;;
74328;SDS011;62745;51.060;13.786;2024-03-23T10:23:40;3.95;;;0.90;;
74328;SDS011;62745;51.060;13.786;2024-03-23T10:26:20;3.00;;;0.80;;
74328;SDS011;62745;51.060;13.786;2024-03-23T10:28:51;1.55;;;0.68;;
74328;SDS011;62745;51.060;13.786;2024-03-23T10:31:17;1.90;;;0.80;;
74328;SDS011;62745;51.060;13.786;2024-03-23T10:33:46;1.55;;;0.63;;
74328;SDS011;62745;51.060;13.786;2024-03-23T10:36:12;1.17;;;0.60;;
74328;SDS011;62745;51.060;13.786;2024-03-23T10:38:42;1.30;;;0.50;;
74328;SDS011;62745;51.060;13.786;2024-03-23T10:41:19;2.85;;;0.50;;
74328;SDS011;62745;51.060;13.786;2024-03-23T10:43:45;1.70;;;0.60;;
74328;SDS011;62745;51.060;13.786;2024-03-23T10:46:12;5.45;;;0.70;;
74328;SDS011;62745;51.060;13.786;2024-03-23T10:48:38;3.00;;;0.50;;
74328;SDS011;62745;51.060;13.786;2024-03-23T10:51:04;1.25;;;0.65;;
74328;SDS011;62745;51.060;13.786;2024-03-23T10:53:32;1.20;;;0.55;;
74328;SDS011;62745;51.060;13.786;2024-03-23T10:55:59;1.98;;;0.70;;
74328;SDS011;62745;51.060;13.786;2024-03-23T10:58:32;1.88;;;0.70;;
74328;SDS011;62745;51.060;13.786;2024-03-23T11:01:03;1.67;;;0.85;;
74328;SDS011;62745;51.060;13.786;2024-03-23T11:03:35;1.75;;;0.85;;
74328;SDS011;62745;51.060;13.786;2024-03-23T11:06:03;2.47;;;1.00;;
74328;SDS011;62745;51.060;13.786;2024-03-23T11:08:33;3.00;;;1.08;;
74328;SDS011;62745;51.060;13.786;2024-03-23T11:13:50;1.83;;;0.88;;
74328;SDS011;62745;51.060;13.786;2024-03-23T11:18:42;1.67;;;0.90;;
74328;SDS011;62745;51.060;13.786;2024-03-23T11:21:09;2.30;;;0.98;;
74328;SDS011;62745;51.060;13.786;2024-03-23T11:26:42;0.95;;;0.60;;
74328;SDS011;62745;51.060;13.786;2024-03-23T11:29:16;1.95;;;0.90;;
74328;SDS011;62745;51.060;13.786;2024-03-23T11:31:52;1.77;;;0.70;;
74328;SDS011;62745;51.060;13.786;2024-03-23T11:34:19;1.55;;;0.63;;
74328;SDS011;62745;51.060;13.786;2024-03-23T11:36:45;1.13;;;0.50;;
74328;SDS011;62745;51.060;13.786;2024-03-23T11:39:15;0.55;;;0.43;;
74328;SDS011;62745;51.060;13.786;2024-03-23T11:42:00;1.42;;;0.73;;
74328;SDS011;62745;51.060;13.786;2024-03-23T11:44:26;0.60;;;0.40;;
74328;SDS011;62745;51.060;13.786;2024-03-23T11:46:52;1.33;;;0.70;;
74328;SDS011;62745;51.060;13.786;2024-03-23T11:49:25;2.22;;;0.65;;
74328;SDS011;62745;51.060;13.786;2024-03-23T11:51:57;1.25;;;0.65;;
74328;SDS011;62745;51.060;13.786;2024-03-23T11:54:26;2.15;;;0.98;;
74328;SDS011;62745;51.060;13.786;2024-03-23T11:56:56;1.35;;;0.60;;
74328;SDS011;62745;51.060;13.786;2024-03-23T11:59:32;1.83;;;0.77;;
74328;SDS011;62745;51.060;13.786;2024-03-23T12:01:58;1.98;;;0.80;;
74328;SDS011;62745;51.060;13.786;2024-03-23T12:04:25;1.83;;;0.75;;
74328;SDS011;62745;51.060;13.786;2024-03-23T12:07:08;1.58;;;0.63;;
74328;SDS011;62745;51.060;13.786;2024-03-23T12:09:34;2.75;;;0.90;;
74328;SDS011;62745;51.060;13.786;2024-03-23T12:12:05;1.45;;;0.65;;
74328;SDS011;62745;51.060;13.786;2024-03-23T12:14:34;1.48;;;0.90;;
74328;SDS011;62745;51.060;13.786;2024-03-23T12:19:39;2.65;;;0.93;;
74328;SDS011;62745;51.060;13.786;2024-03-23T12:22:06;1.83;;;0.80;;
74328;SDS011;62745;51.060;13.786;2024-03-23T12:24:32;2.25;;;0.82;;
74328;SDS011;62745;51.060;13.786;2024-03-23T12:27:01;1.33;;;0.70;;
74328;SDS011;62745;51.060;13.786;2024-03-23T12:29:28;2.95;;;0.93;;
74328;SDS011;62745;51.060;13.786;2024-03-23T12:31:54;2.58;;;1.02;;
74328;SDS011;62745;51.060;13.786;2024-03-23T12:34:21;1.65;;;0.85;;
74328;SDS011;62745;51.060;13.786;2024-03-23T12:36:46;3.20;;;1.00;;
74328;SDS011;62745;51.060;13.786;2024-03-23T12:39:12;2.50;;;1.10;;
74328;SDS011;62745;51.060;13.786;2024-03-23T12:41:37;1.58;;;0.73;;
74328;SDS011;62745;51.060;13.786;2024-03-23T12:44:03;2.25;;;1.00;;
74328;SDS011;62745;51.060;13.786;2024-03-23T12:46:28;2.80;;;1.10;;
74328;SDS011;62745;51.060;13.786;2024-03-23T12:48:54;3.00;;;1.30;;
74328;SDS011;62745;51.060;13.786;2024-03-23T12:51:19;3.15;;;1.38;;
74328;SDS011;62745;51.060;13.786;2024-03-23T12:53:45;3.20;;;1.55;;
74328;SDS011;62745;51.060;13.786;2024-03-23T12:56:14;2.95;;;1.52;;
74328;SDS011;62745;51.060;13.786;2024-03-23T12:58:39;5.85;;;1.92;;
74328;SDS011;62745;51.060;13.786;2024-03-23T13:01:05;2.95;;;1.40;;
74328;SDS011;62745;51.060;13.786;2024-03-23T13:03:31;4.93;;;1.83;;
74328;SDS011;62745;51.060;13.786;2024-03-23T13:05:57;3.20;;;1.55;;
74328;SDS011;62745;51.060;13.786;2024-03-23T13:08:23;4.65;;;2.60;;
74328;SDS011;62745;51.060;13.786;2024-03-23T13:10:51;4.18;;;2.10;;
74328;SDS011;62745;51.060;13.786;2024-03-23T13:13:17;3.72;;;1.85;;
74328;SDS011;62745;51.060;13.786;2024-03-23T13:15:42;5.22;;;2.13;;
74328;SDS011;62745;51.060;13.786;2024-03-23T13:18:15;4.45;;;2.20;;
74328;SDS011;62745;51.060;13.786;2024-03-23T13:20:40;3.72;;;1.90;;
74328;SDS011;62745;51.060;13.786;2024-03-23T13:23:06;4.70;;;2.25;;
74328;SDS011;62745;51.060;13.786;2024-03-23T13:25:31;3.92;;;2.13;;
74328;SDS011;62745;51.060;13.786;2024-03-23T13:27:57;4.32;;;2.40;;
74328;SDS011;62745;51.060;13.786;2024-03-23T13:30:22;4.13;;;1.77;;
74328;SDS011;62745;51.060;13.786;2024-03-23T13:32:47;3.53;;;1.90;;
74328;SDS011;62745;51.060;13.786;2024-03-23T13:35:13;4.75;;;2.00;;
74328;SDS011;62745;51.060;13.786;2024-03-23T13:37:38;3.92;;;1.60;;
74328;SDS011;62745;51.060;13.786;2024-03-23T13:40:05;2.97;;;1.50;;
74328;SDS011;62745;51.060;13.786;2024-03-23T13:42:31;3.95;;;1.60;;
74328;SDS011;62745;51.060;13.786;2024-03-23T13:44:57;3.88;;;1.38;;
74328;SDS011;62745;51.060;13.786;2024-03-23T13:47:22;4.07;;;1.40;;
74328;SDS011;62745;51.060;13.786;2024-03-23T13:49:48;3.95;;;1.27;;
74328;SDS011;62745;51.060;13.786;2024-03-23T13:52:14;4.85;;;1.23;;
74328;SDS011;62745;51.060;13.786;2024-03-23T13:54:40;2.50;;;1.30;;
74328;SDS011;62745;51.060;13.786;2024-03-23T13:57:11;2.63;;;1.10;;
74328;SDS011;62745;51.060;13.786;2024-03-23T13:59:37;4.35;;;1.30;;
74328;SDS011;62745;51.060;13.786;2024-03-23T14:02:02;4.75;;;1.50;;
74328;SDS011;62745;51.060;13.786;2024-03-23T14:04:28;4.45;;;1.42;;
74328;SDS011;62745;51.060;13.786;2024-03-23T14:06:54;4.20;;;1.50;;
74328;SDS011;62745;51.060;13.786;2024-03-23T14:09:19;3.65;;;1.55;;
74328;SDS011;62745;51.060;13.786;2024-03-23T14:11:48;4.15;;;1.52;;
74328;SDS011;62745;51.060;13.786;2024-03-23T14:14:13;3.63;;;1.30;;
74328;SDS011;62745;51.060;13.786;2024-03-23T14:16:45;3.58;;;1.30;;
74328;SDS011;62745;51.060;13.786;2024-03-23T14:19:10;4.13;;;1.33;;
74328;SDS011;62745;51.060;13.786;2024-03-23T14:21:37;4.63;;;1.50;;
74328;SDS011;62745;51.060;13.786;2024-03-23T14:24:03;6.65;;;1.42;;
74328;SDS011;62745;51.060;13.786;2024-03-23T14:26:29;3.15;;;1.20;;
74328;SDS011;62745;51.060;13.786;2024-03-23T14:28:54;4.72;;;1.25;;
74328;SDS011;62745;51.060;13.786;2024-03-23T14:31:20;4.32;;;1.20;;
74328;SDS011;62745;51.060;13.786;2024-03-23T14:33:46;4.00;;;1.35;;
74328;SDS011;62745;51.060;13.786;2024-03-23T14:36:15;4.25;;;1.40;;
74328;SDS011;62745;51.060;13.786;2024-03-23T14:38:42;4.78;;;1.30;;
74328;SDS011;62745;51.060;13.786;2024-03-23T14:43:38;4.43;;;1.52;;
74328;SDS011;62745;51.060;13.786;2024-03-23T14:46:13;2.38;;;0.95;;
74328;SDS011;62745;51.060;13.786;2024-03-23T14:48:41;4.78;;;1.20;;
74328;SDS011;62745;51.060;13.786;2024-03-23T14:51:09;3.92;;;1.20;;
74328;SDS011;62745;51.060;13.786;2024-03-23T14:53:45;4.18;;;1.30;;
74328;SDS011;62745;51.060;13.786;2024-03-23T14:56:11;5.00;;;1.38;;
74328;SDS011;62745;51.060;13.786;2024-03-23T14:58:38;3.95;;;1.42;;
74328;SDS011;62745;51.060;13.786;2024-03-23T15:01:05;7.10;;;1.80;;
74328;SDS011;62745;51.060;13.786;2024-03-23T15:03:38;3.33;;;1.17;;
74328;SDS011;62745;51.060;13.786;2024-03-23T15:06:05;2.85;;;1.13;;
74328;SDS011;62745;51.060;13.786;2024-03-23T15:08:31;6.85;;;1.52;;
74328;SDS011;62745;51.060;13.786;2024-03-23T15:11:00;3.95;;;1.40;;
74328;SDS011;62745;51.060;13.786;2024-03-23T15:13:36;3.75;;;1.55;;
74328;SDS011;62745;51.060;13.786;2024-03-23T15:16:03;5.22;;;1.73;;
74328;SDS011;62745;51.060;13.786;2024-03-23T15:18:31;5.55;;;1.40;;
74328;SDS011;62745;51.060;13.786;2024-03-23T15:23:27;4.22;;;1.52;;
74328;SDS011;62745;51.060;13.786;2024-03-23T15:25:54;3.65;;;1.55;;
74328;SDS011;62745;51.060;13.786;2024-03-23T15:28:21;5.55;;;1.42;;
74328;SDS011;62745;51.060;13.786;2024-03-23T15:30:47;6.10;;;1.45;;
74328;SDS011;62745;51.060;13.786;2024-03-23T15:33:12;4.63;;;1.20;;
74328;SDS011;62745;51.060;13.786;2024-03-23T15:35:38;4.28;;;1.40;;
74328;SDS011;62745;51.060;13.786;2024-03-23T15:38:03;4.15;;;1.80;;
74328;SDS011;62745;51.060;13.786;2024-03-23T15:40:29;5.07;;;1.42;;
74328;SDS011;62745;51.060;13.786;2024-03-23T15:46:42;6.93;;;1.95;;
74328;SDS011;62745;51.060;13.786;2024-03-23T15:49:08;5.68;;;1.80;;
74328;SDS011;62745;51.060;13.786;2024-03-23T15:51:33;7.00;;;1.70;;
74328;SDS011;62745;51.060;13.786;2024-03-23T15:54:02;5.70;;;1.50;;
74328;SDS011;62745;51.060;13.786;2024-03-23T15:56:31;3.75;;;1.55;;
74328;SDS011;62745;51.060;13.786;2024-03-23T15:58:56;5.22;;;1.48;;